Aeroporto :
LOGIN :

Iscrizione | Disclaimer

   EN    FR    IT 

 










Sommario :    VFR   VFR Marginale   IFR   IFR Intensivo   IFR Molto Intensivo
Visibilità : 
Base nubi : 
>= 8 km
>= 3000ft
5 / 8 km
1000 / 3000 ft
1500m / 5 km
500 / 1000 ft
800 / 1500m
200 / 500 ft
< 800m
< 200 ft
Simboli :   Temporali  Nebbia  Neve Forte  Precipitazioni Forti  Vento > 20 kt
SIGMETs :   Varie  Temporali  Ghiacco  Turbolenza  Onda orograficha  Ceneri Vulcaniche







- Altitudine del aeroporto : 791 ft
- Codice IATA : KRK


EPKK - Krakow-Balice

ULTIMO METAR :
  • 261800Z 26016KT 230V290 9999 BKN046 06/M04 Q1019

METARs OBSOLETI :
  • 261730Z 26016KT 9999 BKN057 06/M04 Q1019
  • 261700Z 28017KT 9999 BKN050 06/M04 Q1019
  • 261630Z 28019KT 9999 SCT051 06/M04 Q1018
  • 261600Z 28016G27KT 9999 FEW046 SCT060 07/M02 Q1018
  • 261530Z 29019KT 9999 FEW040CB SCT053 07/M01 Q1018

TAF TAF EPKK
Valido dal 26 a 18 ore il 27 a 18 ore UTC


261730Z 2618/2718 26015G25KT 9999 BKN033
TEMPO 2618/2624 2000 SHRA SHSNRA BKN008 BKN016CB
PROB30
TEMPO 2618/2620 28020G35KT TSGS
BECMG 2621/2624 28007KT
Nessun NOTAM noto per questo aeroporto.



MetMap, La meteo Aeronautica in un colpo d'occhio ! - Copyright ORBIFLY Dicembre 2007 - Disclaimer

ORBIFLY MET'MAP TEAM :

Programmazione e sviluppo : Alexandra Zaïnal
Concezione e sviluppo : Baudouin d'Aumeries
Co-Programmazione e sviluppo : Marc-Olivier Méhu
Supporto tecnico e logistico : Manuel Goepfert
Aiuto per la traduzione : Arnaldo La Scala

Contatto : metmap@orbifly.com




FONTI E CREDITI :

   NOAA